createdAt,value
2017-02-04T00:00:29.022Z,0
2017-02-04T00:01:09.527Z,0
2017-02-04T00:01:50.024Z,0
2017-02-04T00:02:30.523Z,0
2017-02-04T00:03:11.023Z,0
2017-02-04T00:03:51.518Z,0
2017-02-04T00:04:32.016Z,0
2017-02-04T00:05:12.518Z,0
2017-02-04T00:05:53.020Z,0
2017-02-04T00:06:33.515Z,0
2017-02-04T00:07:14.012Z,0
2017-02-04T00:07:54.512Z,0
2017-02-04T00:08:34.994Z,0
2017-02-04T00:09:15.480Z,0
2017-02-04T00:09:55.971Z,0
2017-02-04T00:10:36.457Z,0
2017-02-04T00:11:16.963Z,0
2017-02-04T00:11:57.457Z,0
2017-02-04T00:12:37.940Z,0
2017-02-04T00:13:18.431Z,0
2017-02-04T00:13:58.930Z,0
2017-02-04T00:14:39.417Z,0
2017-02-04T00:15:19.898Z,0
2017-02-04T00:16:00.404Z,0
2017-02-04T00:16:40.901Z,0
2017-02-04T00:17:21.402Z,0
2017-02-04T00:18:01.901Z,0
2017-02-04T00:18:42.407Z,0
2017-02-04T00:19:22.904Z,0
2017-02-04T00:20:03.403Z,0
2017-02-04T00:20:43.894Z,0
2017-02-04T00:21:24.398Z,0
2017-02-04T00:22:04.901Z,0
2017-02-04T00:22:45.397Z,0
2017-02-04T00:23:25.900Z,0
2017-02-04T00:24:06.399Z,0
2017-02-04T00:24:46.886Z,0
2017-02-04T00:25:27.382Z,0
2017-02-04T00:26:07.887Z,0
2017-02-04T00:26:48.390Z,0
2017-02-04T00:27:28.884Z,0
2017-02-04T00:28:09.370Z,0
2017-02-04T00:28:49.863Z,0
2017-02-04T00:29:30.366Z,0
2017-02-04T00:30:10.849Z,0
2017-02-04T00:30:51.347Z,0
2017-02-04T00:31:31.839Z,0
2017-02-04T00:32:12.329Z,0
2017-02-04T00:32:52.836Z,0
2017-02-04T00:33:33.361Z,0
2017-02-04T00:34:13.835Z,0
2017-02-04T00:34:54.328Z,0
2017-02-04T00:35:34.841Z,0
2017-02-04T00:36:15.491Z,0
2017-02-04T00:36:55.977Z,0
2017-02-04T00:37:36.493Z,0
2017-02-04T00:38:16.977Z,0
2017-02-04T00:38:57.482Z,0
2017-02-04T00:39:37.987Z,0
2017-02-04T00:40:18.494Z,0
2017-02-04T00:40:58.973Z,0
2017-02-04T00:41:39.460Z,0
2017-02-04T00:42:19.947Z,0
2017-02-04T00:43:00.448Z,0
2017-02-04T00:43:40.938Z,0
2017-02-04T00:44:21.440Z,0
2017-02-04T00:45:01.930Z,0
2017-02-04T00:45:42.428Z,0
2017-02-04T00:46:22.937Z,0
2017-02-04T00:47:03.417Z,0
2017-02-04T00:47:43.928Z,0
2017-02-04T00:48:24.456Z,0
2017-02-04T00:49:04.928Z,0
2017-02-04T00:49:45.423Z,0
2017-02-04T00:50:25.958Z,0
2017-02-04T00:51:06.421Z,0
2017-02-04T00:51:46.926Z,0
2017-02-04T00:52:27.414Z,0
2017-02-04T00:53:07.901Z,0
2017-02-04T00:53:48.397Z,0
2017-02-04T00:54:28.885Z,0
2017-02-04T00:55:09.372Z,0
2017-02-04T00:55:49.858Z,0
2017-02-04T00:56:30.370Z,0
2017-02-04T00:57:10.858Z,0
2017-02-04T00:57:51.369Z,0
2017-02-04T00:58:31.859Z,0
2017-02-04T00:59:12.348Z,0
2017-02-04T00:59:52.857Z,0
2017-02-04T01:00:33.350Z,0
2017-02-04T01:01:13.869Z,0
2017-02-04T01:01:54.362Z,0
2017-02-04T01:02:34.855Z,0
2017-02-04T01:03:15.342Z,0
2017-02-04T01:03:55.825Z,0
2017-02-04T01:04:36.315Z,0
2017-02-04T01:05:16.814Z,0
2017-02-04T01:05:57.300Z,0
2017-02-04T01:06:37.784Z,0
2017-02-04T01:07:18.279Z,0
2017-02-04T01:07:58.773Z,0
2017-02-04T01:08:39.261Z,0
2017-02-04T01:09:19.748Z,0
2017-02-04T01:10:00.285Z,0
2017-02-04T01:10:40.741Z,0
2017-02-04T01:11:21.227Z,0
2017-02-04T01:12:01.712Z,0
2017-02-04T01:12:42.205Z,0
2017-02-04T01:13:22.704Z,0
2017-02-04T01:14:03.201Z,0
2017-02-04T01:14:43.706Z,0
2017-02-04T01:15:24.311Z,0
2017-02-04T01:16:04.806Z,0
2017-02-04T01:16:45.300Z,0
2017-02-04T01:17:25.795Z,0
2017-02-04T01:18:06.289Z,0
2017-02-04T01:18:46.802Z,0
2017-02-04T01:19:27.295Z,0
2017-02-04T01:20:07.800Z,0
2017-02-04T01:20:48.283Z,0
2017-02-04T01:21:28.797Z,0
2017-02-04T01:22:09.282Z,0
2017-02-04T01:22:49.794Z,0
2017-02-04T01:23:30.284Z,0
2017-02-04T01:24:10.792Z,0
2017-02-04T01:24:51.281Z,0
2017-02-04T01:25:31.767Z,0
2017-02-04T01:26:12.259Z,0
2017-02-04T01:26:52.763Z,0
2017-02-04T01:27:33.246Z,0
2017-02-04T01:28:13.756Z,0
2017-02-04T01:28:54.243Z,0
2017-02-04T01:29:34.737Z,0
2017-02-04T01:30:15.234Z,0
2017-02-04T01:30:55.731Z,0
2017-02-04T01:31:36.234Z,0
2017-02-04T01:32:16.719Z,0
2017-02-04T01:32:57.209Z,0
2017-02-04T01:33:37.701Z,0
2017-02-04T01:34:18.200Z,0
2017-02-04T01:34:58.688Z,0
2017-02-04T01:35:39.183Z,0
2017-02-04T01:36:19.676Z,0
2017-02-04T01:37:00.175Z,0
2017-02-04T01:37:40.676Z,0
2017-02-04T01:38:21.178Z,0
2017-02-04T01:39:01.678Z,0
2017-02-04T01:39:42.166Z,0
2017-02-04T01:40:22.659Z,0
2017-02-04T01:41:03.173Z,0
2017-02-04T01:41:43.675Z,0
2017-02-04T01:42:24.170Z,0
2017-02-04T01:43:04.669Z,0
2017-02-04T01:43:45.173Z,0
2017-02-04T01:44:25.672Z,0
2017-02-04T01:45:06.160Z,0
2017-02-04T01:45:46.650Z,0
2017-02-04T01:46:27.159Z,0
2017-02-04T01:47:07.667Z,0
2017-02-04T01:47:48.155Z,0
2017-02-04T01:48:28.668Z,0
2017-02-04T01:49:09.153Z,0
2017-02-04T01:49:49.671Z,0
2017-02-04T01:50:30.157Z,0
2017-02-04T01:51:10.648Z,0
2017-02-04T01:51:51.163Z,0
2017-02-04T01:52:31.661Z,0
2017-02-04T01:53:12.153Z,0
2017-02-04T01:53:52.639Z,0
2017-02-04T01:54:33.125Z,0
2017-02-04T01:55:13.617Z,0
2017-02-04T01:55:54.112Z,0
2017-02-04T01:56:34.610Z,0
2017-02-04T01:57:15.106Z,0
2017-02-04T01:57:55.595Z,0
2017-02-04T01:58:36.109Z,0
2017-02-04T01:59:16.600Z,0
2017-02-04T01:59:57.101Z,0
2017-02-04T02:00:37.602Z,0
2017-02-04T02:01:18.101Z,0
2017-02-04T02:01:58.604Z,0
2017-02-04T02:02:39.102Z,0
2017-02-04T02:03:19.605Z,0
2017-02-04T02:04:00.103Z,0
2017-02-04T02:04:40.589Z,0
2017-02-04T02:05:21.076Z,0
2017-02-04T02:06:01.560Z,0
2017-02-04T02:06:42.070Z,0
2017-02-04T02:07:22.571Z,0
2017-02-04T02:08:03.066Z,0
2017-02-04T02:08:43.555Z,0
2017-02-04T02:09:24.055Z,0
2017-02-04T02:10:04.547Z,0
2017-02-04T02:10:45.033Z,0
2017-02-04T02:11:25.530Z,0
2017-02-04T02:12:06.037Z,0
2017-02-04T02:12:46.544Z,0
2017-02-04T02:13:27.030Z,0
2017-02-04T02:14:07.523Z,0
2017-02-04T02:14:48.024Z,0
2017-02-04T02:15:28.579Z,0
2017-02-04T02:16:09.094Z,0
2017-02-04T02:16:49.581Z,0
2017-02-04T02:17:30.073Z,0
2017-02-04T02:18:10.585Z,0
2017-02-04T02:18:51.090Z,0
2017-02-04T02:19:31.576Z,0
2017-02-04T02:20:12.065Z,0
2017-02-04T02:20:52.583Z,0
2017-02-04T02:21:33.053Z,0
2017-02-04T02:22:13.547Z,0
2017-02-04T02:22:54.033Z,0
2017-02-04T02:23:34.535Z,0
2017-02-04T02:24:15.023Z,0
2017-02-04T02:24:55.535Z,0
2017-02-04T02:25:36.012Z,0
2017-02-04T02:26:16.499Z,0
2017-02-04T02:26:56.987Z,0
2017-02-04T02:27:37.480Z,0
2017-02-04T02:28:17.976Z,0
2017-02-04T02:28:58.469Z,0
2017-02-04T02:29:38.976Z,0
2017-02-04T02:30:19.470Z,0
2017-02-04T02:30:59.978Z,0
2017-02-04T02:31:40.462Z,0
2017-02-04T02:32:20.974Z,0
2017-02-04T02:33:01.473Z,0
2017-02-04T02:33:41.975Z,0
2017-02-04T02:34:22.464Z,0
2017-02-04T02:35:02.957Z,0
2017-02-04T02:35:43.465Z,0
2017-02-04T02:36:23.974Z,0
2017-02-04T02:37:04.460Z,0
2017-02-04T02:37:44.943Z,0
2017-02-04T02:38:25.427Z,0
2017-02-04T02:39:05.922Z,0
2017-02-04T02:39:46.419Z,0
2017-02-04T02:40:26.904Z,0
2017-02-04T02:41:07.395Z,0
2017-02-04T02:41:48.023Z,0
2017-02-04T02:42:28.517Z,0
2017-02-04T02:43:09.018Z,0
2017-02-04T02:43:49.515Z,0
2017-02-04T02:44:30.038Z,0
2017-02-04T02:45:10.494Z,0
2017-02-04T02:47:23.293Z,0
2017-02-04T02:48:03.780Z,0
2017-02-04T02:48:44.276Z,0
2017-02-04T02:49:24.772Z,0
2017-02-04T02:50:05.260Z,0
2017-02-04T02:50:45.749Z,0
2017-02-04T02:51:26.236Z,0
2017-02-04T02:52:06.728Z,0
2017-02-04T02:52:47.218Z,0
2017-02-04T02:53:27.710Z,0
2017-02-04T02:54:08.217Z,0
2017-02-04T02:54:48.708Z,0
2017-02-04T02:55:29.194Z,0
2017-02-04T02:56:09.680Z,0
2017-02-04T02:56:50.180Z,0
2017-02-04T02:57:30.668Z,0
2017-02-04T02:58:11.175Z,0
2017-02-04T03:00:08.850Z,0
2017-02-04T03:00:49.330Z,0
2017-02-04T03:01:29.844Z,0
2017-02-04T03:02:10.452Z,0
2017-02-04T03:02:50.937Z,0
2017-02-04T03:03:31.423Z,0
2017-02-04T03:04:11.910Z,0
2017-02-04T03:04:52.399Z,0
2017-02-04T03:05:32.880Z,0
2017-02-04T03:06:13.382Z,0
2017-02-04T03:06:53.874Z,0
2017-02-04T03:07:34.351Z,0
2017-02-04T03:08:14.840Z,0
2017-02-04T03:08:55.340Z,0
2017-02-04T03:09:35.828Z,0
2017-02-04T03:10:16.313Z,0
2017-02-04T03:10:56.797Z,0
2017-02-04T03:11:37.312Z,0
2017-02-04T03:12:17.801Z,0
2017-02-04T03:12:58.290Z,0
2017-02-04T03:13:38.766Z,0
2017-02-04T03:14:19.259Z,0
2017-02-04T03:14:59.822Z,0
2017-02-04T03:15:40.308Z,0
2017-02-04T03:16:20.797Z,0
2017-02-04T03:17:01.279Z,0
2017-02-04T03:17:41.763Z,0
2017-02-04T03:18:22.255Z,0
2017-02-04T03:19:02.750Z,0
2017-02-04T03:19:43.241Z,0
2017-02-04T03:20:23.730Z,0
2017-02-04T03:21:04.223Z,0
2017-02-04T03:21:44.719Z,0
2017-02-04T03:22:25.207Z,0
2017-02-04T03:23:05.704Z,0
2017-02-04T03:23:46.176Z,0
2017-02-04T03:24:26.674Z,0
2017-02-04T03:25:07.164Z,0
2017-02-04T03:25:47.651Z,0
2017-02-04T03:26:28.133Z,0
2017-02-04T03:27:08.642Z,0
2017-02-04T03:27:49.129Z,0
2017-02-04T03:28:29.619Z,0
2017-02-04T03:29:10.106Z,0
2017-02-04T03:29:50.609Z,0
2017-02-04T03:30:31.097Z,0
2017-02-04T03:31:11.589Z,0
2017-02-04T03:31:52.085Z,0
2017-02-04T03:32:32.573Z,0
2017-02-04T03:33:13.086Z,0
2017-02-04T03:33:53.576Z,0
2017-02-04T03:34:34.090Z,0
2017-02-04T03:35:14.581Z,0
2017-02-04T03:35:55.083Z,0
2017-02-04T03:36:35.579Z,0
2017-02-04T03:37:16.082Z,0
2017-02-04T03:37:56.575Z,0
2017-02-04T03:38:37.076Z,0
2017-02-04T03:39:17.570Z,0
2017-02-04T03:39:58.058Z,0
2017-02-04T03:40:38.568Z,0
2017-02-04T03:41:19.082Z,0
2017-02-04T03:41:59.577Z,0
2017-02-04T03:42:40.083Z,0
2017-02-04T03:43:20.567Z,0
2017-02-04T03:44:01.060Z,0
2017-02-04T03:44:41.565Z,0
2017-02-04T03:45:22.078Z,0
2017-02-04T03:46:02.566Z,0
2017-02-04T03:46:43.075Z,0
2017-02-04T03:47:23.568Z,0
2017-02-04T03:48:04.151Z,0
2017-02-04T03:48:44.641Z,0
2017-02-04T03:49:25.137Z,0
2017-02-04T03:50:05.626Z,0
2017-02-04T03:50:46.111Z,0
2017-02-04T03:51:26.622Z,0
2017-02-04T03:52:07.119Z,0
2017-02-04T03:52:47.626Z,0
2017-02-04T03:53:28.108Z,0
2017-02-04T03:54:08.599Z,0
2017-02-04T03:54:49.095Z,0
2017-02-04T03:55:29.590Z,0
2017-02-04T03:56:10.074Z,0
2017-02-04T03:56:50.567Z,0
2017-02-04T03:57:31.067Z,0
2017-02-04T03:58:11.553Z,0
2017-02-04T03:58:52.040Z,0
2017-02-04T03:59:32.522Z,0
2017-02-04T04:00:13.017Z,0
2017-02-04T04:00:53.520Z,0
2017-02-04T04:01:33.998Z,0
2017-02-04T04:02:14.486Z,0
2017-02-04T04:02:54.986Z,0
2017-02-04T04:03:35.472Z,0
2017-02-04T04:04:15.958Z,0
2017-02-04T04:04:56.444Z,0
2017-02-04T04:05:36.935Z,0
2017-02-04T04:06:17.440Z,0
2017-02-04T04:06:57.933Z,0
2017-02-04T04:07:38.421Z,0
2017-02-04T04:08:18.920Z,0
2017-02-04T04:08:59.409Z,0
2017-02-04T04:09:39.903Z,0
2017-02-04T04:10:20.428Z,0
2017-02-04T04:11:00.914Z,0
2017-02-04T04:11:41.403Z,0
2017-02-04T04:12:21.889Z,0
2017-02-04T04:13:02.397Z,0
2017-02-04T04:13:42.884Z,0
2017-02-04T04:14:23.371Z,0
2017-02-04T04:15:03.851Z,0
2017-02-04T04:15:44.344Z,0
2017-02-04T04:16:24.844Z,0
2017-02-04T04:17:05.333Z,0
2017-02-04T04:17:45.823Z,0
2017-02-04T04:18:26.332Z,0
2017-02-04T04:19:06.819Z,0
2017-02-04T04:19:47.299Z,0
2017-02-04T04:20:27.817Z,0
2017-02-04T04:21:08.294Z,0
2017-02-04T04:21:48.794Z,0
2017-02-04T04:22:29.285Z,0
2017-02-04T04:23:09.790Z,0
2017-02-04T04:23:50.288Z,0
2017-02-04T04:24:30.779Z,0
2017-02-04T04:25:11.285Z,0
2017-02-04T04:25:51.774Z,0
2017-02-04T04:26:32.262Z,0
2017-02-04T04:27:12.745Z,0
2017-02-04T04:27:53.235Z,0
2017-02-04T04:28:33.731Z,0
2017-02-04T04:29:14.215Z,0
2017-02-04T04:29:54.704Z,0
2017-02-04T04:30:35.186Z,0
2017-02-04T04:31:15.699Z,0
2017-02-04T04:31:56.190Z,0
2017-02-04T04:32:36.700Z,0
2017-02-04T04:33:17.185Z,0
2017-02-04T04:33:57.673Z,0
2017-02-04T04:34:38.175Z,0
2017-02-04T04:35:18.662Z,0
2017-02-04T04:35:59.147Z,0
2017-02-04T04:36:39.628Z,0
2017-02-04T04:37:20.119Z,0
2017-02-04T04:38:00.618Z,0
2017-02-04T04:38:41.107Z,0
2017-02-04T04:39:21.622Z,0
2017-02-04T04:40:02.119Z,0
2017-02-04T04:40:42.616Z,0
2017-02-04T04:41:23.107Z,0
2017-02-04T04:42:03.592Z,0
2017-02-04T04:42:44.078Z,0
2017-02-04T04:43:24.563Z,0
2017-02-04T04:44:05.057Z,0
2017-02-04T04:44:45.559Z,0
2017-02-04T04:45:26.055Z,0
2017-02-04T04:46:06.548Z,0
2017-02-04T04:46:47.036Z,0
2017-02-04T04:47:27.533Z,0
2017-02-04T04:48:08.020Z,0
2017-02-04T04:48:48.506Z,0
2017-02-04T04:49:28.996Z,0
2017-02-04T04:50:09.512Z,0
2017-02-04T04:50:49.993Z,0
2017-02-04T04:51:30.480Z,0
2017-02-04T04:52:10.960Z,0
2017-02-04T04:52:51.456Z,0
2017-02-04T04:53:31.952Z,0
2017-02-04T04:54:12.439Z,0
2017-02-04T04:54:52.932Z,0
2017-02-04T04:55:33.444Z,0
2017-02-04T04:56:13.950Z,0
2017-02-04T04:56:54.434Z,0
2017-02-04T04:57:34.926Z,0
2017-02-04T04:58:15.424Z,0
2017-02-04T04:58:55.908Z,0
2017-02-04T04:59:36.398Z,0
2017-02-04T05:00:16.879Z,0
2017-02-04T05:00:57.369Z,0
2017-02-04T05:01:37.855Z,0
2017-02-04T05:02:18.342Z,0
2017-02-04T05:02:58.818Z,0
2017-02-04T05:03:39.312Z,0
2017-02-04T05:04:19.802Z,0
2017-02-04T05:05:00.290Z,0
2017-02-04T05:05:40.776Z,0
2017-02-04T05:06:21.319Z,0
2017-02-04T05:07:01.784Z,0
2017-02-04T05:07:42.287Z,0
2017-02-04T05:08:22.786Z,0
2017-02-04T05:09:03.246Z,0
2017-02-04T05:09:43.737Z,0
2017-02-04T05:10:24.232Z,0
2017-02-04T05:11:04.731Z,0
2017-02-04T05:11:45.201Z,0
2017-02-04T05:12:25.734Z,0
2017-02-04T05:13:06.222Z,0
2017-02-04T05:13:46.731Z,0
2017-02-04T05:14:27.223Z,0
2017-02-04T05:15:07.736Z,0
2017-02-04T05:15:48.211Z,0
2017-02-04T05:16:28.697Z,0
2017-02-04T05:17:09.194Z,0
2017-02-04T05:17:49.703Z,0
2017-02-04T05:18:30.197Z,0
2017-02-04T05:19:10.686Z,0
2017-02-04T05:21:23.792Z,0
2017-02-04T05:22:04.287Z,0
2017-02-04T05:22:44.776Z,0
2017-02-04T05:23:25.263Z,0
2017-02-04T05:24:05.752Z,0
2017-02-04T05:24:46.242Z,0
2017-02-04T05:25:26.743Z,0
2017-02-04T05:26:07.227Z,0
2017-02-04T05:26:47.737Z,0
2017-02-04T05:27:28.234Z,0
2017-02-04T05:28:08.731Z,0
2017-02-04T05:28:49.233Z,0
2017-02-04T05:29:29.729Z,0
2017-02-04T05:30:10.221Z,0
2017-02-04T05:30:50.709Z,0
2017-02-04T05:31:31.206Z,0
2017-02-04T05:32:11.696Z,0
2017-02-04T05:32:52.179Z,0
2017-02-04T05:33:32.668Z,0
2017-02-04T05:34:13.178Z,0
2017-02-04T05:34:53.663Z,0
2017-02-04T05:35:34.169Z,0
2017-02-04T05:36:14.662Z,0
2017-02-04T05:36:55.151Z,0
2017-02-04T05:37:35.643Z,0
2017-02-04T05:38:16.147Z,0
2017-02-04T05:38:56.631Z,0
2017-02-04T05:39:37.137Z,0
2017-02-04T05:40:17.623Z,0
2017-02-04T05:40:58.120Z,0
2017-02-04T05:41:38.621Z,0
2017-02-04T05:42:19.116Z,0
2017-02-04T05:42:59.619Z,0
2017-02-04T05:43:40.104Z,0
2017-02-04T05:44:20.595Z,0
2017-02-04T05:45:01.067Z,0
2017-02-04T05:45:41.562Z,0
2017-02-04T05:46:22.065Z,0
2017-02-04T05:47:02.555Z,0
2017-02-04T05:47:43.046Z,0
2017-02-04T05:48:23.550Z,0
2017-02-04T05:49:04.062Z,0
2017-02-04T05:49:44.561Z,0
2017-02-04T05:50:25.061Z,0
2017-02-04T05:51:05.546Z,0
2017-02-04T05:51:46.042Z,0
2017-02-04T05:52:26.558Z,0
2017-02-04T05:53:07.055Z,0
2017-02-04T05:53:47.547Z,0
2017-02-04T05:54:28.039Z,0
2017-02-04T05:55:08.555Z,0
2017-02-04T05:55:49.052Z,0
2017-02-04T05:56:29.545Z,0
2017-02-04T05:57:10.031Z,0
2017-02-04T05:57:50.528Z,0
2017-02-04T05:58:31.018Z,0
2017-02-04T05:59:11.508Z,0
2017-02-04T05:59:51.996Z,0
2017-02-04T06:00:32.526Z,0
2017-02-04T06:01:13.015Z,0
2017-02-04T06:01:53.532Z,0
2017-02-04T06:02:34.021Z,0
2017-02-04T06:03:14.507Z,0
2017-02-04T06:03:55.000Z,0
2017-02-04T06:04:35.492Z,0
2017-02-04T06:05:15.987Z,0
2017-02-04T06:05:56.479Z,0
2017-02-04T06:06:36.984Z,0
2017-02-04T06:07:17.477Z,0
2017-02-04T06:07:57.981Z,0
2017-02-04T06:08:38.467Z,0
2017-02-04T06:09:18.961Z,0
2017-02-04T06:09:59.455Z,0
2017-02-04T06:10:39.943Z,0
2017-02-04T06:11:20.437Z,0
2017-02-04T06:12:00.935Z,0
2017-02-04T06:12:41.433Z,0
2017-02-04T06:13:21.936Z,0
2017-02-04T06:14:02.435Z,0
2017-02-04T06:14:42.932Z,0
2017-02-04T06:15:23.425Z,0
2017-02-04T06:16:03.928Z,0
2017-02-04T06:16:44.433Z,0
2017-02-04T06:17:24.929Z,0
2017-02-04T06:18:05.420Z,0
2017-02-04T06:18:45.926Z,0
2017-02-04T06:19:26.422Z,0
2017-02-04T06:20:06.909Z,0
2017-02-04T06:20:47.419Z,0
2017-02-04T06:21:27.907Z,0
2017-02-04T06:22:08.398Z,0
2017-02-04T06:22:48.905Z,0
2017-02-04T06:23:29.487Z,0
2017-02-04T06:24:09.979Z,0
2017-02-04T06:24:50.480Z,0
2017-02-04T06:25:30.960Z,0
2017-02-04T06:26:11.473Z,0
2017-02-04T06:26:51.960Z,0
2017-02-04T06:27:32.455Z,0
2017-02-04T06:28:12.968Z,0
2017-02-04T06:28:53.472Z,0
2017-02-04T06:29:33.958Z,0
2017-02-04T06:30:14.498Z,0
2017-02-04T06:30:54.989Z,0
2017-02-04T06:31:35.475Z,0
2017-02-04T06:32:15.964Z,4
2017-02-04T06:32:56.472Z,4
2017-02-04T06:33:36.957Z,4
2017-02-04T06:34:17.444Z,4
2017-02-04T06:34:57.932Z,4
2017-02-04T06:35:38.430Z,4
2017-02-04T06:36:18.918Z,4
2017-02-04T06:36:59.430Z,4
2017-02-04T06:37:39.919Z,8
2017-02-04T06:38:20.412Z,4
2017-02-04T06:39:00.912Z,8
2017-02-04T06:39:41.400Z,8
2017-02-04T06:40:21.893Z,8
2017-02-04T06:41:02.400Z,8
2017-02-04T06:41:42.891Z,12
2017-02-04T06:42:23.460Z,12
2017-02-04T06:43:03.944Z,16
2017-02-04T06:43:44.433Z,12
2017-02-04T06:44:24.918Z,16
2017-02-04T06:45:05.485Z,16
2017-02-04T06:45:45.972Z,20
2017-02-04T06:46:26.459Z,20
2017-02-04T06:47:06.946Z,24
2017-02-04T06:47:47.462Z,28
2017-02-04T06:48:27.947Z,28
2017-02-04T06:49:08.451Z,28
2017-02-04T06:49:48.941Z,32
2017-02-04T06:50:29.425Z,36
2017-02-04T06:51:09.908Z,40
2017-02-04T06:51:50.403Z,40
2017-02-04T06:52:30.901Z,44
2017-02-04T06:53:11.392Z,44
2017-02-04T06:53:51.879Z,48
2017-02-04T06:54:32.365Z,52
2017-02-04T06:55:12.850Z,60
2017-02-04T06:55:53.347Z,60
2017-02-04T06:56:33.832Z,64
2017-02-04T06:57:14.317Z,64
2017-02-04T06:57:54.799Z,68
2017-02-04T06:58:35.292Z,76
2017-02-04T06:59:15.792Z,80
2017-02-04T06:59:56.280Z,84
2017-02-04T07:00:36.774Z,92
2017-02-04T07:01:17.292Z,92
2017-02-04T07:01:57.789Z,100
2017-02-04T07:02:38.275Z,104
2017-02-04T07:03:18.795Z,108
2017-02-04T07:03:59.288Z,112
2017-02-04T07:04:39.789Z,116
2017-02-04T07:05:20.283Z,124
2017-02-04T07:06:00.802Z,128
2017-02-04T07:06:41.306Z,136
2017-02-04T07:07:21.790Z,136
2017-02-04T07:08:02.284Z,140
2017-02-04T07:08:42.784Z,140
2017-02-04T07:09:23.278Z,144
2017-02-04T07:10:03.781Z,148
2017-02-04T07:10:44.258Z,152
2017-02-04T07:11:24.746Z,152
2017-02-04T07:12:05.232Z,160
2017-02-04T07:12:45.726Z,168
2017-02-04T07:13:26.228Z,168
2017-02-04T07:14:06.705Z,160
2017-02-04T07:14:47.198Z,156
2017-02-04T07:15:27.692Z,156
2017-02-04T07:16:08.194Z,152
2017-02-04T07:16:48.676Z,148
2017-02-04T07:17:29.173Z,144
2017-02-04T07:18:09.709Z,152
2017-02-04T07:18:50.194Z,152
2017-02-04T07:19:30.695Z,156
2017-02-04T07:20:11.189Z,164
2017-02-04T07:20:51.681Z,164
2017-02-04T07:21:32.171Z,164
2017-02-04T07:22:12.667Z,168
2017-02-04T07:22:53.152Z,172
2017-02-04T07:23:33.668Z,176
2017-02-04T07:24:14.153Z,184
2017-02-04T07:24:54.662Z,192
2017-02-04T07:25:35.154Z,200
2017-02-04T07:26:15.636Z,208
2017-02-04T07:26:56.131Z,216
2017-02-04T07:27:36.626Z,228
2017-02-04T07:28:17.112Z,244
2017-02-04T07:28:57.608Z,252
2017-02-04T07:29:38.106Z,264
2017-02-04T07:30:18.595Z,272
2017-02-04T07:30:59.161Z,288
2017-02-04T07:31:39.658Z,308
2017-02-04T07:32:20.147Z,336
2017-02-04T07:33:00.651Z,388
2017-02-04T07:33:41.150Z,448
2017-02-04T07:34:21.659Z,512
2017-02-04T07:35:02.151Z,580
2017-02-04T07:35:42.652Z,640
2017-02-04T07:36:23.145Z,660
2017-02-04T07:37:03.636Z,696
2017-02-04T07:37:44.155Z,696
2017-02-04T07:38:24.651Z,716
2017-02-04T07:39:05.132Z,740
2017-02-04T07:39:45.648Z,772
2017-02-04T07:40:26.147Z,796
2017-02-04T07:41:06.655Z,800
2017-02-04T07:41:47.149Z,788
2017-02-04T07:42:27.622Z,796
2017-02-04T07:43:08.105Z,792
2017-02-04T07:43:48.601Z,776
2017-02-04T07:44:29.095Z,764
2017-02-04T07:45:09.580Z,700
2017-02-04T07:45:50.066Z,596
2017-02-04T07:46:30.549Z,524
2017-02-04T07:47:11.039Z,476
2017-02-04T07:47:51.532Z,452
2017-02-04T07:48:32.037Z,440
2017-02-04T07:49:12.534Z,436
2017-02-04T07:49:53.023Z,440
2017-02-04T07:50:33.534Z,464
2017-02-04T07:51:14.028Z,424
2017-02-04T07:51:54.514Z,400
2017-02-04T07:52:35.011Z,400
2017-02-04T07:53:15.502Z,396
2017-02-04T07:53:55.993Z,404
2017-02-04T07:54:36.486Z,420
2017-02-04T07:55:16.980Z,444
2017-02-04T07:55:57.470Z,484
2017-02-04T07:56:37.983Z,520
2017-02-04T07:57:18.485Z,536
2017-02-04T07:57:58.960Z,536
2017-02-04T07:58:39.472Z,548
2017-02-04T07:59:20.054Z,556
2017-02-04T08:00:01.446Z,576
2017-02-04T08:00:41.390Z,616
2017-02-04T08:01:22.968Z,704
2017-02-04T08:02:03.754Z,832
2017-02-04T08:02:45.438Z,928
2017-02-04T08:03:28.419Z,976
2017-02-04T08:04:07.697Z,976
2017-02-04T08:04:48.191Z,940
2017-02-04T08:05:29.108Z,884
2017-02-04T08:06:09.960Z,828
2017-02-04T08:06:51.941Z,764
2017-02-04T08:07:33.324Z,708
2017-02-04T08:08:13.824Z,684
2017-02-04T08:08:54.385Z,668
2017-02-04T08:09:34.890Z,636
2017-02-04T08:10:15.380Z,632
2017-02-04T08:10:55.872Z,632
2017-02-04T08:11:36.388Z,632
2017-02-04T08:12:16.893Z,628
2017-02-04T08:12:57.386Z,640
2017-02-04T08:13:37.890Z,664
2017-02-04T08:14:18.385Z,712
2017-02-04T08:14:58.887Z,772
2017-02-04T08:15:39.377Z,824
2017-02-04T08:16:19.864Z,856
2017-02-04T08:17:00.373Z,872
2017-02-04T08:17:40.861Z,868
2017-02-04T08:18:21.352Z,852
2017-02-04T08:19:01.841Z,844
2017-02-04T08:19:42.331Z,856
2017-02-04T08:20:22.835Z,864
2017-02-04T08:21:03.329Z,852
2017-02-04T08:21:43.816Z,824
2017-02-04T08:22:24.299Z,776
2017-02-04T08:23:04.782Z,720
2017-02-04T08:23:45.278Z,664
2017-02-04T08:24:25.774Z,628
2017-02-04T08:25:06.271Z,600
2017-02-04T08:25:46.776Z,560
2017-02-04T08:26:27.264Z,524
2017-02-04T08:27:07.754Z,492
2017-02-04T08:27:48.258Z,464
2017-02-04T08:28:28.744Z,436
2017-02-04T08:29:09.227Z,416
2017-02-04T08:29:49.719Z,400
2017-02-04T08:30:30.216Z,388
2017-02-04T08:31:10.713Z,380
2017-02-04T08:31:51.336Z,376
2017-02-04T08:32:31.836Z,380
2017-02-04T08:33:12.327Z,388
2017-02-04T08:33:52.810Z,400
2017-02-04T08:34:33.296Z,416
2017-02-04T08:35:13.778Z,440
2017-02-04T08:35:54.285Z,468
2017-02-04T08:36:34.788Z,496
2017-02-04T08:37:15.282Z,528
2017-02-04T08:37:55.768Z,568
2017-02-04T08:38:36.264Z,604
2017-02-04T08:39:16.766Z,644
2017-02-04T08:39:57.255Z,680
2017-02-04T08:40:37.745Z,724
2017-02-04T08:41:18.253Z,768
2017-02-04T08:41:58.755Z,840
2017-02-04T08:42:39.242Z,944
2017-02-04T08:43:19.761Z,1052
2017-02-04T08:44:00.243Z,1128
2017-02-04T08:44:40.724Z,1184
2017-02-04T08:45:21.215Z,1224
2017-02-04T08:46:01.720Z,1224
2017-02-04T08:46:42.207Z,1196
2017-02-04T08:47:22.701Z,1144
2017-02-04T08:48:03.198Z,1084
2017-02-04T08:48:43.703Z,1064
2017-02-04T08:49:24.196Z,1076
2017-02-04T08:50:04.695Z,1124
2017-02-04T08:50:45.299Z,1164
2017-02-04T08:51:25.782Z,1168
2017-02-04T08:53:23.470Z,1168
2017-02-04T08:54:03.961Z,1164
2017-02-04T08:54:44.457Z,1156
2017-02-04T08:55:24.956Z,1152
2017-02-04T08:56:05.453Z,1164
2017-02-04T08:56:45.972Z,1172
2017-02-04T08:57:26.732Z,1172
2017-02-04T08:58:08.225Z,1180
2017-02-04T08:58:48.916Z,1192
2017-02-04T08:59:29.403Z,1196
2017-02-04T09:00:09.891Z,1192
2017-02-04T09:00:50.404Z,1200
2017-02-04T09:01:30.873Z,1212
2017-02-04T09:02:11.358Z,1264
2017-02-04T09:02:51.842Z,1328
2017-02-04T09:03:32.333Z,1372
2017-02-04T09:04:12.812Z,1404
2017-02-04T09:04:53.299Z,1436
2017-02-04T09:05:33.793Z,1452
2017-02-04T09:06:14.280Z,1472
2017-02-04T09:06:54.762Z,1492
2017-02-04T09:07:35.245Z,1524
2017-02-04T09:08:15.739Z,1560
2017-02-04T09:08:56.249Z,1600
2017-02-04T09:09:36.740Z,1628
2017-02-04T09:10:17.241Z,1644
2017-02-04T09:10:57.733Z,1644
2017-02-04T09:11:38.227Z,1624
2017-02-04T09:12:18.722Z,1632
2017-02-04T09:12:59.215Z,1644
2017-02-04T09:13:39.719Z,1660
2017-02-04T09:14:20.220Z,1680
2017-02-04T09:15:00.703Z,1720
2017-02-04T09:15:41.202Z,1788
2017-02-04T09:16:21.725Z,1828
2017-02-04T09:17:02.217Z,1820
2017-02-04T09:17:42.720Z,1764
2017-02-04T09:18:23.200Z,1684
2017-02-04T09:19:03.686Z,1608
2017-02-04T09:19:44.183Z,1524
2017-02-04T09:20:24.663Z,1456
2017-02-04T09:21:05.157Z,1428
2017-02-04T09:21:45.647Z,1444
2017-02-04T09:22:26.135Z,1496
2017-02-04T09:23:06.618Z,1588
2017-02-04T09:23:47.110Z,1716
2017-02-04T09:24:27.604Z,1884
2017-02-04T09:25:08.090Z,2080
2017-02-04T09:25:48.580Z,2232
2017-02-04T09:26:29.060Z,2340
2017-02-04T09:27:09.570Z,2372
2017-02-04T09:27:50.058Z,2356
2017-02-04T09:28:30.552Z,2304
2017-02-04T09:29:11.052Z,2284
2017-02-04T09:29:51.547Z,2272
2017-02-04T09:30:32.045Z,2296
2017-02-04T09:31:12.534Z,2376
2017-02-04T09:31:53.047Z,2452
2017-02-04T09:32:33.536Z,2488
2017-02-04T09:33:14.021Z,2488
2017-02-04T09:33:54.500Z,2456
2017-02-04T09:34:34.993Z,2388
2017-02-04T09:35:15.492Z,2344
2017-02-04T09:35:55.985Z,2388
2017-02-04T09:36:36.496Z,2504
2017-02-04T09:37:16.993Z,2664
2017-02-04T09:37:57.486Z,2796
2017-02-04T09:38:37.988Z,2868
2017-02-04T09:39:18.484Z,2884
2017-02-04T09:39:58.968Z,2900
2017-02-04T09:40:39.454Z,2896
2017-02-04T09:41:19.942Z,2872
2017-02-04T09:42:00.459Z,2848
2017-02-04T09:42:40.952Z,2796
2017-02-04T09:43:21.452Z,2716
2017-02-04T09:44:01.940Z,2616
2017-02-04T09:44:42.434Z,2460
2017-02-04T09:45:22.932Z,2284
2017-02-04T09:46:03.423Z,2132
2017-02-04T09:46:43.920Z,2060
2017-02-04T09:47:24.421Z,2032
2017-02-04T09:48:04.903Z,2032
2017-02-04T09:48:45.394Z,2044
2017-02-04T09:49:25.880Z,2072